createdAt,value
2017-09-14T00:02:03.658Z,14.80
2017-09-14T00:04:31.706Z,14.80
2017-09-14T00:06:59.783Z,14.70
2017-09-14T00:09:27.824Z,14.70
2017-09-14T00:11:56.633Z,14.80
2017-09-14T00:14:24.694Z,14.80
2017-09-14T00:16:52.743Z,14.80
2017-09-14T00:19:20.821Z,14.80
2017-09-14T00:21:48.893Z,14.80
2017-09-14T00:24:17.710Z,14.90
2017-09-14T00:26:45.786Z,14.90
2017-09-14T00:29:13.834Z,14.80
2017-09-14T00:31:42.689Z,14.80
2017-09-14T00:34:10.747Z,14.80
2017-09-14T00:36:38.798Z,14.80
2017-09-14T00:39:06.867Z,14.80
2017-09-14T00:41:34.923Z,14.70
2017-09-14T00:44:03.017Z,14.80
2017-09-14T00:46:31.042Z,14.70
2017-09-14T00:48:59.085Z,14.70
2017-09-14T00:51:27.166Z,14.70
2017-09-14T00:53:55.215Z,14.80
2017-09-14T00:56:25.054Z,14.80
2017-09-14T00:58:53.091Z,14.80
2017-09-14T01:01:21.165Z,14.80
2017-09-14T01:03:49.224Z,14.70
2017-09-14T01:06:17.273Z,14.70
2017-09-14T01:08:45.342Z,14.70
2017-09-14T01:11:13.393Z,14.70
2017-09-14T01:13:41.461Z,14.70
2017-09-14T01:16:09.513Z,14.70
2017-09-14T01:18:37.581Z,14.70
2017-09-14T01:21:05.640Z,14.70
2017-09-14T01:23:33.714Z,14.70
2017-09-14T01:26:01.805Z,14.70
2017-09-14T01:28:29.871Z,14.70
2017-09-14T01:30:57.952Z,14.70
2017-09-14T01:33:26.002Z,14.70
2017-09-14T01:35:54.081Z,14.70
2017-09-14T01:38:22.154Z,14.70
2017-09-14T01:40:50.232Z,14.70
2017-09-14T01:43:18.299Z,14.70
2017-09-14T01:45:46.371Z,14.70
2017-09-14T01:48:14.446Z,14.70
2017-09-14T01:50:42.512Z,14.70
2017-09-14T01:53:11.484Z,14.70
2017-09-14T01:55:39.526Z,14.70
2017-09-14T01:58:07.601Z,14.70
2017-09-14T02:00:36.433Z,14.70
2017-09-14T02:03:04.486Z,14.70
2017-09-14T02:05:32.583Z,14.80
2017-09-14T02:08:00.633Z,14.70
2017-09-14T02:10:28.701Z,14.70
2017-09-14T02:12:56.767Z,14.70
2017-09-14T02:15:24.813Z,14.70
2017-09-14T02:17:52.870Z,14.60
2017-09-14T02:20:20.942Z,14.60
2017-09-14T02:22:48.989Z,14.60
2017-09-14T02:25:17.050Z,14.60
2017-09-14T02:27:45.121Z,14.60
2017-09-14T02:30:13.193Z,14.70
2017-09-14T02:32:41.310Z,14.60
2017-09-14T02:35:09.393Z,14.60
2017-09-14T02:37:38.379Z,14.70
2017-09-14T02:40:06.437Z,14.70
2017-09-14T02:42:34.513Z,14.70
2017-09-14T02:45:02.571Z,14.70
2017-09-14T02:47:30.641Z,14.70
2017-09-14T02:49:58.700Z,14.70
2017-09-14T02:52:26.777Z,14.70
2017-09-14T02:54:54.843Z,14.70
2017-09-14T02:57:22.901Z,14.70
2017-09-14T02:59:50.983Z,14.70
2017-09-14T03:02:19.041Z,14.70
2017-09-14T03:04:47.112Z,14.70
2017-09-14T03:07:15.154Z,14.70
2017-09-14T03:09:43.237Z,14.70
2017-09-14T03:12:11.273Z,14.70
2017-09-14T03:14:39.350Z,14.60
2017-09-14T03:17:07.417Z,14.60
2017-09-14T03:19:35.467Z,14.60
2017-09-14T03:22:03.535Z,14.60
2017-09-14T03:24:31.587Z,14.70
2017-09-14T03:26:59.652Z,14.60
2017-09-14T03:29:28.482Z,14.70
2017-09-14T03:31:56.540Z,14.70
2017-09-14T03:34:24.693Z,14.70
2017-09-14T03:36:52.749Z,14.70
2017-09-14T03:39:20.805Z,14.60
2017-09-14T03:41:48.849Z,14.60
2017-09-14T03:44:16.930Z,14.60
2017-09-14T03:46:44.989Z,14.60
2017-09-14T03:49:13.063Z,14.50
2017-09-14T03:51:41.117Z,14.50
2017-09-14T03:54:09.158Z,14.50
2017-09-14T03:56:37.246Z,14.50
2017-09-14T03:59:05.296Z,14.50
2017-09-14T04:01:33.383Z,14.50
2017-09-14T04:04:01.417Z,14.50
2017-09-14T04:06:29.470Z,14.50
2017-09-14T04:08:57.553Z,14.50
2017-09-14T04:11:25.605Z,14.40
2017-09-14T04:13:53.675Z,14.40
2017-09-14T04:16:21.745Z,14.40
2017-09-14T04:18:49.804Z,14.40
2017-09-14T04:21:17.886Z,14.40
2017-09-14T04:23:45.907Z,14.40
2017-09-14T04:26:13.983Z,14.40
2017-09-14T04:28:42.029Z,14.30
2017-09-14T04:31:10.102Z,14.40
2017-09-14T04:33:38.704Z,14.40
2017-09-14T04:36:06.755Z,14.40
2017-09-14T04:38:34.839Z,14.30
2017-09-14T04:41:02.905Z,14.30
2017-09-14T04:43:30.985Z,14.30
2017-09-14T04:45:59.043Z,14.30
2017-09-14T04:48:27.172Z,14.30
2017-09-14T04:50:56.002Z,14.10
2017-09-14T04:53:24.072Z,14.10
2017-09-14T04:55:52.569Z,14.00
2017-09-14T04:58:20.641Z,13.90
2017-09-14T05:00:48.713Z,13.80
2017-09-14T05:03:16.770Z,13.80
2017-09-14T05:05:44.857Z,13.80
2017-09-14T05:08:12.932Z,13.80
2017-09-14T05:10:40.995Z,13.80
2017-09-14T05:13:09.070Z,13.80
2017-09-14T05:15:37.102Z,13.80
2017-09-14T05:18:05.145Z,13.80
2017-09-14T05:20:33.232Z,13.90
2017-09-14T05:23:01.540Z,13.90
2017-09-14T05:25:29.594Z,13.90
2017-09-14T05:27:57.681Z,13.90
2017-09-14T05:30:25.859Z,13.90
2017-09-14T05:32:53.911Z,13.90
2017-09-14T05:35:21.959Z,13.90
2017-09-14T05:37:50.038Z,13.90
2017-09-14T05:40:18.089Z,14.00
2017-09-14T05:42:46.155Z,13.90
2017-09-14T05:45:14.209Z,13.90
2017-09-14T05:47:42.278Z,14.00
2017-09-14T05:50:10.370Z,13.90
2017-09-14T05:52:38.633Z,13.90
2017-09-14T05:55:06.770Z,13.80
2017-09-14T05:57:34.861Z,13.80
2017-09-14T06:00:02.951Z,13.80
2017-09-14T06:02:31.014Z,13.80
2017-09-14T06:04:59.330Z,13.80
2017-09-14T06:07:27.377Z,13.90
2017-09-14T06:09:55.430Z,13.80
2017-09-14T06:12:23.504Z,13.80
2017-09-14T06:14:51.566Z,13.80
2017-09-14T06:17:19.630Z,13.90
2017-09-14T06:19:47.719Z,13.80
2017-09-14T06:22:15.791Z,13.80
2017-09-14T06:24:43.851Z,13.90
2017-09-14T06:27:11.923Z,13.90
2017-09-14T06:29:40.007Z,13.90
2017-09-14T06:32:08.049Z,13.90
2017-09-14T06:34:36.152Z,13.90
2017-09-14T06:37:04.193Z,13.90
2017-09-14T06:39:32.278Z,13.90
2017-09-14T06:42:00.329Z,13.90
2017-09-14T06:44:28.381Z,13.80
2017-09-14T06:46:56.439Z,13.80
2017-09-14T06:49:24.513Z,13.80
2017-09-14T06:51:52.577Z,13.80
2017-09-14T06:54:20.750Z,13.80
2017-09-14T06:56:48.815Z,13.90
2017-09-14T06:59:16.860Z,13.80
2017-09-14T07:01:44.941Z,13.90
2017-09-14T07:04:12.994Z,13.90
2017-09-14T07:06:41.119Z,13.90
2017-09-14T07:09:09.216Z,13.90
2017-09-14T07:11:37.269Z,13.80
2017-09-14T07:14:05.327Z,13.80
2017-09-14T07:16:33.393Z,13.80
2017-09-14T07:19:01.455Z,13.80
2017-09-14T07:21:29.529Z,13.70
2017-09-14T07:23:57.578Z,13.70
2017-09-14T07:26:25.662Z,13.70
2017-09-14T07:28:53.724Z,13.70
2017-09-14T07:31:21.795Z,13.70
2017-09-14T07:33:49.857Z,13.70
2017-09-14T07:36:17.925Z,13.80
2017-09-14T07:38:46.037Z,13.80
2017-09-14T07:41:14.087Z,13.80
2017-09-14T07:43:42.161Z,13.80
2017-09-14T07:46:10.230Z,13.80
2017-09-14T07:48:38.281Z,13.90
2017-09-14T07:51:06.346Z,13.90
2017-09-14T07:53:34.399Z,13.80
2017-09-14T07:56:02.488Z,13.80
2017-09-14T07:58:30.555Z,13.80
2017-09-14T08:00:58.608Z,13.80
2017-09-14T08:03:26.704Z,13.80
2017-09-14T08:05:54.778Z,13.80
2017-09-14T08:08:22.867Z,13.80
2017-09-14T08:10:50.907Z,13.70
2017-09-14T08:13:18.968Z,13.70
2017-09-14T08:15:47.040Z,13.70
2017-09-14T08:18:15.088Z,13.70
2017-09-14T08:20:44.614Z,13.80
2017-09-14T08:23:13.777Z,13.80
2017-09-14T08:25:41.841Z,13.80
2017-09-14T08:28:10.686Z,13.80
2017-09-14T08:30:38.733Z,13.80
2017-09-14T08:33:06.825Z,13.80
2017-09-14T08:35:34.890Z,13.80
2017-09-14T08:38:02.976Z,13.80
2017-09-14T08:40:31.011Z,13.80
2017-09-14T08:42:59.096Z,13.80
2017-09-14T08:45:27.177Z,13.80
2017-09-14T08:47:55.265Z,13.90
2017-09-14T08:50:23.346Z,13.80
2017-09-14T08:52:51.396Z,13.80
2017-09-14T08:55:19.451Z,13.80
2017-09-14T08:57:47.529Z,13.80
2017-09-14T09:00:15.608Z,13.80
2017-09-14T09:02:43.701Z,13.80
2017-09-14T09:05:11.752Z,13.80
2017-09-14T09:07:39.819Z,13.80
2017-09-14T09:10:07.895Z,13.70
2017-09-14T09:12:35.960Z,13.70
2017-09-14T09:15:04.056Z,13.70
2017-09-14T09:17:32.125Z,13.70
2017-09-14T09:20:00.185Z,13.70
2017-09-14T09:22:28.267Z,13.70
2017-09-14T09:24:56.375Z,13.70
2017-09-14T09:27:24.503Z,13.80
2017-09-14T09:29:52.573Z,13.80
2017-09-14T09:32:20.653Z,13.70
2017-09-14T09:34:48.719Z,13.70
2017-09-14T09:37:16.782Z,13.70
2017-09-14T09:39:44.841Z,13.60
2017-09-14T09:42:12.909Z,13.60
2017-09-14T09:44:40.951Z,13.60
2017-09-14T09:47:09.026Z,13.60
2017-09-14T09:49:37.077Z,13.60
2017-09-14T09:52:05.220Z,13.60
2017-09-14T09:54:33.243Z,13.60
2017-09-14T09:57:02.090Z,13.60
2017-09-14T09:59:30.150Z,13.50
2017-09-14T10:01:58.243Z,13.60
2017-09-14T10:04:26.289Z,13.60
2017-09-14T10:06:54.398Z,13.70
2017-09-14T10:09:22.472Z,13.80
2017-09-14T10:11:50.542Z,13.90
2017-09-14T10:14:18.602Z,13.90
2017-09-14T10:16:46.668Z,14.00
2017-09-14T10:19:14.716Z,14.10
2017-09-14T10:21:42.827Z,14.20
2017-09-14T10:24:10.897Z,14.30
2017-09-14T10:26:38.960Z,14.40
2017-09-14T10:29:07.121Z,14.60
2017-09-14T10:31:35.170Z,14.70
2017-09-14T10:34:03.245Z,14.80
2017-09-14T10:36:32.061Z,15.00
2017-09-14T10:39:00.113Z,15.00
2017-09-14T10:41:28.173Z,15.10
2017-09-14T10:43:56.239Z,15.20
2017-09-14T10:46:24.286Z,15.30
2017-09-14T10:48:52.397Z,15.40
2017-09-14T10:51:20.626Z,15.50
2017-09-14T10:53:48.694Z,15.60
2017-09-14T10:56:16.752Z,15.50
2017-09-14T10:58:44.837Z,15.50
2017-09-14T11:01:12.900Z,15.30
2017-09-14T11:03:41.014Z,16.40
2017-09-14T11:06:09.846Z,15.10
2017-09-14T11:08:37.936Z,15.10
2017-09-14T11:11:05.982Z,15.00
2017-09-14T11:13:34.056Z,15.00
2017-09-14T11:16:02.148Z,14.90
2017-09-14T11:18:30.215Z,14.80
2017-09-14T11:20:58.302Z,14.80
2017-09-14T11:23:26.375Z,14.80
2017-09-14T11:25:54.489Z,14.80
2017-09-14T11:28:22.552Z,14.80
2017-09-14T11:30:50.609Z,14.90
2017-09-14T11:33:18.779Z,15.00
2017-09-14T11:35:46.830Z,15.20
2017-09-14T11:38:15.738Z,15.60
2017-09-14T11:40:44.907Z,15.60
2017-09-14T11:43:12.975Z,15.70
2017-09-14T11:45:41.018Z,15.80
2017-09-14T11:48:09.845Z,15.70
2017-09-14T11:50:37.940Z,15.60
2017-09-14T11:53:06.020Z,15.60
2017-09-14T11:55:34.085Z,15.50
2017-09-14T11:58:02.139Z,15.50
2017-09-14T12:00:30.203Z,15.50
2017-09-14T12:02:58.277Z,15.50
2017-09-14T12:05:26.381Z,15.50
2017-09-14T12:07:54.448Z,15.40
2017-09-14T12:10:22.507Z,15.40
2017-09-14T12:12:50.599Z,15.30
2017-09-14T12:15:18.686Z,15.10
2017-09-14T12:17:46.754Z,15.10
2017-09-14T12:20:14.814Z,15.00
2017-09-14T12:22:43.717Z,15.00
2017-09-14T12:25:11.788Z,15.00
2017-09-14T12:27:39.834Z,15.00
2017-09-14T12:30:07.988Z,14.90
2017-09-14T12:32:36.013Z,14.90
2017-09-14T12:35:04.085Z,14.90
2017-09-14T12:37:32.141Z,14.90
2017-09-14T12:40:00.232Z,14.90
2017-09-14T12:42:28.400Z,15.00
2017-09-14T12:44:56.461Z,15.00
2017-09-14T12:47:24.547Z,15.10
2017-09-14T12:49:52.594Z,15.10
2017-09-14T12:52:20.694Z,15.10
2017-09-14T12:54:48.754Z,15.20
2017-09-14T12:57:16.828Z,15.20
2017-09-14T12:59:44.872Z,15.30
2017-09-14T13:02:12.927Z,15.20
2017-09-14T13:04:41.024Z,15.20
2017-09-14T13:07:09.093Z,15.10
2017-09-14T13:09:37.378Z,15.00
2017-09-14T13:12:05.431Z,15.00
2017-09-14T13:14:33.507Z,15.10
2017-09-14T13:17:01.571Z,15.10
2017-09-14T13:19:29.648Z,15.10
2017-09-14T13:21:57.696Z,15.10
2017-09-14T13:24:25.746Z,15.10
2017-09-14T13:26:54.594Z,15.20
2017-09-14T13:29:22.679Z,15.20
2017-09-14T13:31:50.725Z,15.20
2017-09-14T13:34:18.785Z,15.30
2017-09-14T13:36:46.860Z,15.30
2017-09-14T13:39:14.917Z,15.30
2017-09-14T13:41:42.988Z,15.30
2017-09-14T13:44:11.038Z,15.30
2017-09-14T13:46:39.156Z,15.40
2017-09-14T13:49:07.216Z,15.40
